Topas — LJQM — position and weather

sailwx.info

Track history (hours):
 
Tides and Currents Weather Stations Pressure Air Temp Water Temp Dewpoint Dewpoint Depression Visibility Wind Speed Wind Dir Waves Ship Positions

Topas

Last reported at 2018-May-13 11:14 UTC. Time now 2018-May-21 03:32 UTC.
Position N 71°00' E 023°54'.

Length 28 m; draft 4.5 m.

Type: Fishing. MMSI: 259648000.

Date/timePositionNaut miles runAvg speedWind from/ knotsBaromVisibWave heightAir tempDewpointWater temp
2018-May-13 11:14N 71°00' E 023°54'1 4.3
2018-May-13 11:00N 71°00' E 023°51'4 7.4
2018-May-13 10:30N 71°02' E 023°60'3 6.9
2018-May-13 10:00N 71°03' E 024°10'4 8.5
2018-May-13 09:29N 71°05' E 024°23'8 0.3
2018-May-12 05:48N 71°02' E 024°47'3 8.0
2018-May-12 05:28N 71°02' E 024°39'4 8.5
2018-May-12 04:59N 71°02' E 024°26'4 8.9
2018-May-12 04:30N 71°02' E 024°13'4 8.2
2018-May-12 04:00N 71°03' E 024°00'4 7.6
2018-May-12 03:30N 71°00' E 023°51'1 0.0
2018-May-10 03:42N 71°00' E 023°54'0 0.0
2018-May-10 03:30N 71°00' E 023°54'0 0.0
2018-May-10 02:25N 71°00' E 023°54'0 0.0
2018-May-10 02:00N 71°00' E 023°54'0 0.0
2018-May-10 01:28N 71°00' E 023°54'0 0.0
2018-May-10 01:00N 71°00' E 023°54'0 0.0
2018-May-10 00:30N 71°00' E 023°54'  
Track history (hours):
 
Tides and Currents Weather Stations Pressure Air Temp Water Temp Dewpoint Dewpoint Depression Visibility Wind Speed Wind Dir Waves Ship Positions

Topas

Last reported at 2018-May-13 11:14 UTC. Time now 2018-May-21 03:32 UTC.
Position N 71°00' E 023°54'.

Length 28 m; draft 4.5 m.

Type: Fishing. MMSI: 259648000.

Date/timePositionNaut miles runAvg speedWind from/ knotsBaromVisibWave heightAir tempDewpointWater temp
2018-May-13 11:14N 71°00' E 023°54'1 4.3
2018-May-13 11:00N 71°00' E 023°51'4 7.4
2018-May-13 10:30N 71°02' E 023°60'3 6.9
2018-May-13 10:00N 71°03' E 024°10'4 8.5
2018-May-13 09:29N 71°05' E 024°23'8 0.3
2018-May-12 05:48N 71°02' E 024°47'3 8.0
2018-May-12 05:28N 71°02' E 024°39'4 8.5
2018-May-12 04:59N 71°02' E 024°26'4 8.9
2018-May-12 04:30N 71°02' E 024°13'4 8.2
2018-May-12 04:00N 71°03' E 024°00'4 7.6
2018-May-12 03:30N 71°00' E 023°51'1 0.0
2018-May-10 03:42N 71°00' E 023°54'0 0.0
2018-May-10 03:30N 71°00' E 023°54'0 0.0
2018-May-10 02:25N 71°00' E 023°54'0 0.0
2018-May-10 02:00N 71°00' E 023°54'0 0.0
2018-May-10 01:28N 71°00' E 023°54'0 0.0
2018-May-10 01:00N 71°00' E 023°54'0 0.0
2018-May-10 00:30N 71°00' E 023°54'  

Dump ship's entire track history